CCA1898 ZSLG-ZBAA
Flight info
| Callsign | CCA1898 |
|---|---|
| Flight time | 1h 17m |
| Altitude | 21700 |
| Route | K0861S1040 RUX92D RUXEL W529 SAGIP A593 DALIM W157 BEKDO/K0856S1010 W157 AVBOX AVBOX6J |
| Aircraft | B38M/M-SDE1FGHILORVWXY/HB1 |
Departure
| Time | 2026-04-15 15:00 |
|---|---|
| Airport | Lianyungang Huaguoshan International Airport (ZSLG) |
Arrival
| Time | 2026-04-15 16:18 |
|---|---|
| Airport | Beijing Capital International Airport (ZBAA) |
| Time | Latitude | Longitude | Altitude | Speed | Heading |
|---|---|---|---|---|---|
| 2026-04-15 14:28 | 34.41090 | 119.18319 | 20 ft | 0 kts | 118° |
| 2026-04-15 14:51 | 34.41096 | 119.18304 | 17 ft | 4 kts | 115° |
| 2026-04-15 14:51 | 34.41108 | 119.18276 | 22 ft | 4 kts | 129° |
| 2026-04-15 14:51 | 34.41127 | 119.18263 | 23 ft | 4 kts | 187° |
| 2026-04-15 14:52 | 34.41148 | 119.18272 | 22 ft | 1 kts | 207° |
| 2026-04-15 14:52 | 34.41149 | 119.18272 | 22 ft | 2 kts | 207° |
| 2026-04-15 14:55 | 34.41147 | 119.18271 | 20 ft | 1 kts | 207° |
| 2026-04-15 14:55 | 34.41125 | 119.18258 | 20 ft | 6 kts | 207° |
| 2026-04-15 14:55 | 34.41078 | 119.18229 | 21 ft | 9 kts | 207° |
| 2026-04-15 14:56 | 34.41016 | 119.18193 | 20 ft | 11 kts | 206° |
| 2026-04-15 14:56 | 34.40957 | 119.18133 | 20 ft | 10 kts | 254° |
| 2026-04-15 14:56 | 34.40960 | 119.18112 | 20 ft | 5 kts | 293° |
| 2026-04-15 14:56 | 34.40994 | 119.18031 | 21 ft | 16 kts | 296° |
| 2026-04-15 14:57 | 34.41012 | 119.17889 | 22 ft | 18 kts | 220° |
| 2026-04-15 14:57 | 34.40893 | 119.17816 | 20 ft | 21 kts | 206° |
| 2026-04-15 14:57 | 34.40754 | 119.17731 | 20 ft | 24 kts | 206° |
| 2026-04-15 14:57 | 34.40590 | 119.17633 | 20 ft | 28 kts | 206° |
| 2026-04-15 14:58 | 34.40405 | 119.17522 | 20 ft | 31 kts | 206° |
| 2026-04-15 14:58 | 34.40205 | 119.17401 | 21 ft | 33 kts | 206° |
| 2026-04-15 14:58 | 34.40127 | 119.17320 | 20 ft | 7 kts | 277° |
| 2026-04-15 14:58 | 34.40146 | 119.17267 | 23 ft | 7 kts | 299° |
| 2026-04-15 14:59 | 34.40172 | 119.17207 | 23 ft | 8 kts | 307° |
| 2026-04-15 14:59 | 34.40226 | 119.17203 | 21 ft | 9 kts | 29° |
| 2026-04-15 14:59 | 34.40253 | 119.17220 | 20 ft | 2 kts | 26° |
| 2026-04-15 14:59 | 34.40253 | 119.17221 | 20 ft | 0 kts | 26° |
| 2026-04-15 15:00 | 34.40262 | 119.17225 | 22 ft | 3 kts | 26° |
| 2026-04-15 15:00 | 34.40318 | 119.17259 | 21 ft | 33 kts | 26° |
| 2026-04-15 15:00 | 34.40780 | 119.17539 | 22 ft | 113 kts | 26° |
| 2026-04-15 15:01 | 34.41691 | 119.18088 | 47 ft | 174 kts | 28° |
| 2026-04-15 15:01 | 34.42793 | 119.18757 | 865 ft | 177 kts | 30° |
| 2026-04-15 15:01 | 34.43920 | 119.19436 | 1751 ft | 184 kts | 31° |
| 2026-04-15 15:01 | 34.45120 | 119.20158 | 2362 ft | 202 kts | 35° |
| 2026-04-15 15:02 | 34.46025 | 119.21479 | 2823 ft | 214 kts | 76° |
| 2026-04-15 15:02 | 34.45972 | 119.23294 | 3337 ft | 227 kts | 113° |
| 2026-04-15 15:02 | 34.45247 | 119.24997 | 4227 ft | 229 kts | 118° |
| 2026-04-15 15:02 | 34.44935 | 119.25734 | 4683 ft | 229 kts | 117° |
| 2026-04-15 15:08 | 34.44704 | 119.26284 | 5036 ft | 229 kts | 118° |
| 2026-04-15 15:08 | 34.44571 | 119.26600 | 5224 ft | 230 kts | 118° |
| 2026-04-15 15:09 | 34.44330 | 119.27161 | 5537 ft | 232 kts | 120° |
| 2026-04-15 15:09 | 34.43261 | 119.28601 | 6462 ft | 236 kts | 147° |
| 2026-04-15 15:10 | 34.41687 | 119.29300 | 7357 ft | 245 kts | 172° |
| 2026-04-15 15:10 | 34.40008 | 119.29032 | 8256 ft | 253 kts | 199° |
| 2026-04-15 15:10 | 34.38378 | 119.28097 | 9140 ft | 259 kts | 202° |
| 2026-04-15 15:10 | 34.36762 | 119.27171 | 10022 ft | 262 kts | 202° |
| 2026-04-15 15:11 | 34.35104 | 119.26210 | 10822 ft | 266 kts | 203° |
| 2026-04-15 15:11 | 34.33430 | 119.25230 | 11610 ft | 269 kts | 204° |
| 2026-04-15 15:11 | 34.31729 | 119.24223 | 12316 ft | 278 kts | 205° |
| 2026-04-15 15:11 | 34.29939 | 119.23147 | 12713 ft | 297 kts | 205° |
| 2026-04-15 15:12 | 34.28022 | 119.21993 | 13054 ft | 318 kts | 205° |
| 2026-04-15 15:12 | 34.25981 | 119.20767 | 13348 ft | 337 kts | 205° |
| 2026-04-15 15:12 | 34.23820 | 119.19468 | 13625 ft | 356 kts | 206° |
| 2026-04-15 15:12 | 34.21560 | 119.18111 | 13998 ft | 368 kts | 206° |
| 2026-04-15 15:13 | 34.19246 | 119.16722 | 14555 ft | 372 kts | 206° |
| 2026-04-15 15:13 | 34.16919 | 119.15327 | 15177 ft | 375 kts | 206° |
| 2026-04-15 15:13 | 34.14721 | 119.13615 | 15740 ft | 379 kts | 222° |
| 2026-04-15 15:13 | 34.13059 | 119.11140 | 16339 ft | 382 kts | 240° |
| 2026-04-15 15:14 | 34.12117 | 119.08136 | 16916 ft | 387 kts | 258° |
| 2026-04-15 15:14 | 34.11856 | 119.04891 | 17491 ft | 390 kts | 265° |
| 2026-04-15 15:14 | 34.11715 | 119.01611 | 18043 ft | 393 kts | 266° |
| 2026-04-15 15:14 | 34.11594 | 118.98304 | 18562 ft | 396 kts | 266° |
| 2026-04-15 15:15 | 34.11484 | 118.94979 | 19085 ft | 396 kts | 267° |
| 2026-04-15 15:15 | 34.11382 | 118.91660 | 19652 ft | 396 kts | 267° |
| 2026-04-15 15:15 | 34.11282 | 118.88339 | 20187 ft | 396 kts | 267° |
| 2026-04-15 15:15 | 34.11183 | 118.85015 | 20725 ft | 397 kts | 267° |
| 2026-04-15 15:16 | 34.11082 | 118.81686 | 21245 ft | 397 kts | 267° |
| 2026-04-15 15:16 | 34.10978 | 118.78347 | 21636 ft | 400 kts | 268° |
| 2026-04-15 15:16 | 34.10873 | 118.75013 | 21726 ft | 407 kts | 268° |
| 2026-04-15 15:16 | 34.10763 | 118.71518 | 21726 ft | 415 kts | 268° |
| 2026-04-15 15:17 | 34.10651 | 118.68008 | 21725 ft | 423 kts | 267° |
| 2026-04-15 15:17 | 34.10536 | 118.64440 | 21728 ft | 429 kts | 267° |
| 2026-04-15 15:17 | 34.10420 | 118.60871 | 21728 ft | 431 kts | 267° |
| 2026-04-15 15:17 | 34.10302 | 118.57256 | 21736 ft | 432 kts | 267° |
| 2026-04-15 15:18 | 34.10182 | 118.53638 | 21738 ft | 432 kts | 267° |
| 2026-04-15 15:18 | 34.10061 | 118.50015 | 21738 ft | 432 kts | 267° |
| 2026-04-15 15:18 | 34.09940 | 118.46398 | 21737 ft | 432 kts | 267° |
| 2026-04-15 15:18 | 34.09817 | 118.42780 | 21733 ft | 432 kts | 267° |
| 2026-04-15 15:19 | 34.09693 | 118.39161 | 21735 ft | 432 kts | 267° |
| 2026-04-15 15:19 | 34.09569 | 118.35539 | 21734 ft | 432 kts | 267° |
| 2026-04-15 15:19 | 34.09442 | 118.31918 | 21738 ft | 432 kts | 267° |
| 2026-04-15 15:19 | 34.09316 | 118.28298 | 21737 ft | 432 kts | 267° |
| 2026-04-15 15:20 | 34.09188 | 118.24676 | 21735 ft | 432 kts | 267° |
| 2026-04-15 15:20 | 34.09298 | 118.21055 | 21724 ft | 433 kts | 279° |
| 2026-04-15 15:20 | 34.10205 | 118.17593 | 21729 ft | 436 kts | 294° |
| 2026-04-15 15:20 | 34.11869 | 118.14521 | 21733 ft | 441 kts | 308° |
| 2026-04-15 15:21 | 34.14147 | 118.12018 | 21738 ft | 446 kts | 319° |
| 2026-04-15 15:21 | 34.16621 | 118.09740 | 21732 ft | 447 kts | 320° |
| 2026-04-15 15:21 | 34.19118 | 118.07498 | 21733 ft | 448 kts | 320° |
| 2026-04-15 15:21 | 34.21633 | 118.05270 | 21733 ft | 448 kts | 321° |
| 2026-04-15 15:22 | 34.24156 | 118.03054 | 21733 ft | 448 kts | 321° |
| 2026-04-15 15:22 | 34.26708 | 118.00877 | 21732 ft | 450 kts | 326° |
| 2026-04-15 15:22 | 34.29586 | 117.99350 | 21738 ft | 456 kts | 339° |
| 2026-04-15 15:22 | 34.31594 | 117.98588 | 21732 ft | 457 kts | 339° |
| 2026-04-15 15:23 | 34.34632 | 117.97451 | 21732 ft | 457 kts | 340° |
| 2026-04-15 15:23 | 34.37680 | 117.96337 | 21737 ft | 458 kts | 340° |
| 2026-04-15 15:23 | 34.40731 | 117.95239 | 21736 ft | 458 kts | 340° |
| 2026-04-15 15:23 | 34.43782 | 117.94146 | 21735 ft | 458 kts | 340° |
| 2026-04-15 15:24 | 34.46840 | 117.93053 | 21728 ft | 458 kts | 340° |
| 2026-04-15 15:24 | 34.49893 | 117.91960 | 21733 ft | 458 kts | 340° |
| 2026-04-15 15:24 | 34.52949 | 117.90866 | 21735 ft | 458 kts | 340° |
| 2026-04-15 15:24 | 34.56011 | 117.89769 | 21735 ft | 458 kts | 340° |
| 2026-04-15 15:25 | 34.59069 | 117.88673 | 21735 ft | 458 kts | 340° |
| 2026-04-15 15:25 | 34.62124 | 117.87576 | 21733 ft | 458 kts | 340° |
| 2026-04-15 15:25 | 34.65188 | 117.86476 | 21739 ft | 458 kts | 340° |
| 2026-04-15 15:25 | 34.68205 | 117.85392 | 21740 ft | 459 kts | 340° |
| 2026-04-15 15:26 | 34.71267 | 117.84290 | 21738 ft | 459 kts | 340° |
| 2026-04-15 15:26 | 34.74331 | 117.83188 | 21740 ft | 459 kts | 340° |
| 2026-04-15 15:26 | 34.77394 | 117.82084 | 21737 ft | 459 kts | 340° |
| 2026-04-15 15:26 | 34.80463 | 117.80978 | 21746 ft | 459 kts | 340° |
| 2026-04-15 15:27 | 34.83525 | 117.79867 | 21736 ft | 459 kts | 340° |
| 2026-04-15 15:27 | 34.86588 | 117.78747 | 21739 ft | 460 kts | 340° |
| 2026-04-15 15:27 | 34.89655 | 117.77626 | 21737 ft | 460 kts | 340° |
| 2026-04-15 15:27 | 34.92722 | 117.76504 | 21742 ft | 460 kts | 340° |
| 2026-04-15 15:28 | 34.95790 | 117.75381 | 21739 ft | 461 kts | 340° |
| 2026-04-15 15:28 | 34.98867 | 117.74254 | 21736 ft | 461 kts | 340° |
| 2026-04-15 15:28 | 35.01939 | 117.73127 | 21740 ft | 462 kts | 340° |
| 2026-04-15 15:28 | 35.05014 | 117.71999 | 21740 ft | 462 kts | 339° |
| 2026-04-15 15:29 | 35.08097 | 117.70870 | 21740 ft | 462 kts | 340° |
| 2026-04-15 15:29 | 35.11177 | 117.69741 | 21739 ft | 462 kts | 340° |
| 2026-04-15 15:29 | 35.14256 | 117.68611 | 21738 ft | 462 kts | 340° |
| 2026-04-15 15:29 | 35.17340 | 117.67479 | 21742 ft | 463 kts | 339° |
| 2026-04-15 15:30 | 35.20425 | 117.66346 | 21742 ft | 463 kts | 339° |
| 2026-04-15 15:30 | 35.23508 | 117.65213 | 21741 ft | 464 kts | 339° |
| 2026-04-15 15:30 | 35.26602 | 117.64075 | 21741 ft | 464 kts | 339° |
| 2026-04-15 15:30 | 35.29692 | 117.62937 | 21733 ft | 464 kts | 339° |
| 2026-04-15 15:31 | 35.32744 | 117.61812 | 21738 ft | 464 kts | 339° |
| 2026-04-15 15:31 | 35.35835 | 117.60672 | 21740 ft | 464 kts | 339° |
| 2026-04-15 15:31 | 35.38929 | 117.59530 | 21738 ft | 464 kts | 339° |
| 2026-04-15 15:31 | 35.42022 | 117.58387 | 21737 ft | 465 kts | 339° |
| 2026-04-15 15:32 | 35.45118 | 117.57243 | 21736 ft | 465 kts | 339° |
| 2026-04-15 15:32 | 35.48216 | 117.56096 | 21738 ft | 465 kts | 339° |
| 2026-04-15 15:32 | 35.51315 | 117.54949 | 21735 ft | 465 kts | 339° |
| 2026-04-15 15:32 | 35.54414 | 117.53801 | 21732 ft | 465 kts | 339° |
| 2026-04-15 15:33 | 35.57513 | 117.52651 | 21741 ft | 466 kts | 339° |
| 2026-04-15 15:33 | 35.60615 | 117.51500 | 21736 ft | 466 kts | 339° |
| 2026-04-15 15:33 | 35.63717 | 117.50347 | 21734 ft | 466 kts | 339° |
| 2026-04-15 15:33 | 35.66833 | 117.49189 | 21731 ft | 466 kts | 339° |
| 2026-04-15 15:34 | 35.69938 | 117.48034 | 21737 ft | 466 kts | 339° |
| 2026-04-15 15:34 | 35.73045 | 117.46877 | 21733 ft | 467 kts | 339° |
| 2026-04-15 15:34 | 35.76157 | 117.45717 | 21732 ft | 467 kts | 339° |
| 2026-04-15 15:34 | 35.79262 | 117.44559 | 21734 ft | 467 kts | 339° |
| 2026-04-15 15:35 | 35.82375 | 117.43397 | 21732 ft | 467 kts | 339° |
| 2026-04-15 15:35 | 35.85484 | 117.42235 | 21729 ft | 467 kts | 339° |
| 2026-04-15 15:35 | 35.88600 | 117.41070 | 21734 ft | 468 kts | 339° |
| 2026-04-15 15:35 | 35.91719 | 117.39903 | 21730 ft | 468 kts | 339° |
| 2026-04-15 15:36 | 35.94839 | 117.38734 | 21731 ft | 468 kts | 340° |
| 2026-04-15 15:36 | 35.97956 | 117.37566 | 21738 ft | 468 kts | 340° |
| 2026-04-15 15:36 | 36.01078 | 117.36408 | 21731 ft | 469 kts | 340° |
| 2026-04-15 15:36 | 36.04162 | 117.35271 | 21732 ft | 469 kts | 340° |
| 2026-04-15 15:37 | 36.07289 | 117.34116 | 21719 ft | 469 kts | 340° |
| 2026-04-15 15:37 | 36.10419 | 117.32958 | 21729 ft | 469 kts | 340° |
| 2026-04-15 15:37 | 36.13548 | 117.31800 | 21731 ft | 470 kts | 340° |
| 2026-04-15 15:37 | 36.16680 | 117.30640 | 21729 ft | 470 kts | 340° |
| 2026-04-15 15:38 | 36.19814 | 117.29478 | 21730 ft | 470 kts | 340° |
| 2026-04-15 15:38 | 36.22950 | 117.28314 | 21728 ft | 470 kts | 340° |
| 2026-04-15 15:38 | 36.26085 | 117.27149 | 21725 ft | 470 kts | 340° |
| 2026-04-15 15:38 | 36.29227 | 117.25981 | 21733 ft | 471 kts | 340° |
| 2026-04-15 15:39 | 36.32361 | 117.24815 | 21727 ft | 471 kts | 340° |
| 2026-04-15 15:39 | 36.35500 | 117.23646 | 21724 ft | 471 kts | 340° |
| 2026-04-15 15:39 | 36.38638 | 117.22477 | 21718 ft | 471 kts | 340° |
| 2026-04-15 15:39 | 36.41763 | 117.21244 | 21717 ft | 469 kts | 336° |
| 2026-04-15 15:40 | 36.44786 | 117.19722 | 21718 ft | 469 kts | 335° |
| 2026-04-15 15:40 | 36.47805 | 117.18172 | 21718 ft | 469 kts | 335° |
| 2026-04-15 15:40 | 36.50822 | 117.16609 | 21720 ft | 469 kts | 334° |
| 2026-04-15 15:40 | 36.53834 | 117.15044 | 21717 ft | 469 kts | 334° |
| 2026-04-15 15:41 | 36.56810 | 117.13496 | 21717 ft | 470 kts | 335° |
| 2026-04-15 15:41 | 36.59824 | 117.11926 | 21716 ft | 469 kts | 335° |
| 2026-04-15 15:41 | 36.62841 | 117.10353 | 21710 ft | 470 kts | 335° |
| 2026-04-15 15:41 | 36.65856 | 117.08780 | 21708 ft | 470 kts | 335° |
| 2026-04-15 15:42 | 36.68871 | 117.07206 | 21704 ft | 470 kts | 335° |
| 2026-04-15 15:42 | 36.71890 | 117.05628 | 21706 ft | 470 kts | 335° |
| 2026-04-15 15:42 | 36.74904 | 117.04052 | 21706 ft | 470 kts | 335° |
| 2026-04-15 15:42 | 36.77920 | 117.02473 | 21705 ft | 470 kts | 335° |
| 2026-04-15 15:43 | 36.80939 | 117.00891 | 21704 ft | 470 kts | 335° |
| 2026-04-15 15:43 | 36.83949 | 116.99312 | 21704 ft | 470 kts | 335° |
| 2026-04-15 15:43 | 36.86964 | 116.97730 | 21699 ft | 470 kts | 335° |
| 2026-04-15 15:43 | 36.89974 | 116.96149 | 21692 ft | 470 kts | 335° |
| 2026-04-15 15:44 | 36.92988 | 116.94564 | 21697 ft | 470 kts | 335° |
| 2026-04-15 15:44 | 36.95998 | 116.92980 | 21695 ft | 470 kts | 335° |
| 2026-04-15 15:44 | 36.99010 | 116.91393 | 21696 ft | 469 kts | 335° |
| 2026-04-15 15:44 | 37.02019 | 116.89807 | 21695 ft | 469 kts | 335° |
| 2026-04-15 15:45 | 37.05030 | 116.88219 | 21694 ft | 469 kts | 335° |
| 2026-04-15 15:45 | 37.08036 | 116.86632 | 21701 ft | 469 kts | 335° |
| 2026-04-15 15:45 | 37.11044 | 116.85042 | 21693 ft | 469 kts | 335° |
| 2026-04-15 15:45 | 37.14050 | 116.83452 | 21695 ft | 469 kts | 335° |
| 2026-04-15 15:46 | 37.17055 | 116.81862 | 21690 ft | 469 kts | 335° |
| 2026-04-15 15:46 | 37.20061 | 116.80269 | 21697 ft | 469 kts | 335° |
| 2026-04-15 15:46 | 37.23097 | 116.78918 | 21694 ft | 470 kts | 340° |
| 2026-04-15 15:46 | 37.26223 | 116.77713 | 21702 ft | 471 kts | 341° |
| 2026-04-15 15:47 | 37.29360 | 116.76520 | 21700 ft | 470 kts | 341° |
| 2026-04-15 15:47 | 37.32495 | 116.75333 | 21698 ft | 471 kts | 341° |
| 2026-04-15 15:47 | 37.35626 | 116.74149 | 21694 ft | 470 kts | 341° |
| 2026-04-15 15:47 | 37.38762 | 116.72963 | 21694 ft | 470 kts | 341° |
| 2026-04-15 15:48 | 37.41895 | 116.71777 | 21689 ft | 470 kts | 341° |
| 2026-04-15 15:48 | 37.45029 | 116.70589 | 21688 ft | 470 kts | 341° |
| 2026-04-15 15:48 | 37.48159 | 116.69402 | 21689 ft | 470 kts | 341° |
| 2026-04-15 15:48 | 37.51294 | 116.68212 | 21690 ft | 470 kts | 341° |
| 2026-04-15 15:49 | 37.54425 | 116.67023 | 21695 ft | 470 kts | 341° |
| 2026-04-15 15:49 | 37.57554 | 116.65833 | 21691 ft | 470 kts | 341° |
| 2026-04-15 15:49 | 37.60686 | 116.64641 | 21686 ft | 470 kts | 341° |
| 2026-04-15 15:49 | 37.63810 | 116.63451 | 21692 ft | 470 kts | 341° |
| 2026-04-15 15:50 | 37.66939 | 116.62258 | 21687 ft | 470 kts | 341° |
| 2026-04-15 15:50 | 37.70068 | 116.61064 | 21685 ft | 470 kts | 341° |
| 2026-04-15 15:50 | 37.73194 | 116.59870 | 21689 ft | 470 kts | 341° |
| 2026-04-15 15:50 | 37.76319 | 116.58676 | 21687 ft | 469 kts | 341° |
| 2026-04-15 15:51 | 37.79446 | 116.57479 | 21690 ft | 469 kts | 341° |
| 2026-04-15 15:51 | 37.82574 | 116.56281 | 21689 ft | 469 kts | 341° |
| 2026-04-15 15:51 | 37.85698 | 116.55084 | 21690 ft | 469 kts | 341° |
| 2026-04-15 15:51 | 37.88818 | 116.53887 | 21688 ft | 469 kts | 341° |
| 2026-04-15 15:52 | 37.91938 | 116.52690 | 21686 ft | 469 kts | 341° |
| 2026-04-15 15:52 | 37.95020 | 116.51503 | 21688 ft | 468 kts | 340° |
| 2026-04-15 15:52 | 37.97956 | 116.49810 | 21675 ft | 462 kts | 325° |
| 2026-04-15 15:52 | 38.00611 | 116.47527 | 21692 ft | 461 kts | 322° |
| 2026-04-15 15:53 | 38.03246 | 116.45192 | 21686 ft | 461 kts | 322° |
| 2026-04-15 15:53 | 38.05861 | 116.42836 | 21684 ft | 461 kts | 321° |
| 2026-04-15 15:53 | 38.08467 | 116.40461 | 21684 ft | 461 kts | 321° |
| 2026-04-15 15:53 | 38.11067 | 116.38079 | 21683 ft | 461 kts | 321° |
| 2026-04-15 15:54 | 38.13669 | 116.35691 | 21684 ft | 461 kts | 321° |
| 2026-04-15 15:54 | 38.16266 | 116.33304 | 21681 ft | 461 kts | 321° |
| 2026-04-15 15:54 | 38.18865 | 116.30914 | 21683 ft | 461 kts | 321° |
| 2026-04-15 15:54 | 38.21479 | 116.28549 | 21678 ft | 462 kts | 325° |
| 2026-04-15 15:55 | 38.24402 | 116.26808 | 21677 ft | 467 kts | 340° |
| 2026-04-15 15:55 | 38.27601 | 116.26049 | 21680 ft | 472 kts | 355° |
| 2026-04-15 15:55 | 38.30875 | 116.26342 | 21681 ft | 475 kts | 9° |
| 2026-04-15 15:55 | 38.34099 | 116.27323 | 21687 ft | 476 kts | 13° |
| 2026-04-15 15:56 | 38.37310 | 116.28368 | 21686 ft | 476 kts | 13° |
| 2026-04-15 15:56 | 38.40520 | 116.29443 | 21684 ft | 477 kts | 13° |
| 2026-04-15 15:56 | 38.43722 | 116.30536 | 21685 ft | 477 kts | 13° |
| 2026-04-15 15:56 | 38.46907 | 116.31631 | 21435 ft | 468 kts | 13° |
| 2026-04-15 15:57 | 38.50042 | 116.32712 | 20732 ft | 465 kts | 14° |
| 2026-04-15 15:57 | 38.53148 | 116.33784 | 20071 ft | 461 kts | 14° |
| 2026-04-15 15:57 | 38.56192 | 116.34835 | 19415 ft | 458 kts | 14° |
| 2026-04-15 15:57 | 38.59259 | 116.35895 | 18741 ft | 455 kts | 14° |
| 2026-04-15 15:58 | 38.62309 | 116.36951 | 18125 ft | 451 kts | 14° |
| 2026-04-15 15:58 | 38.65328 | 116.37906 | 17637 ft | 442 kts | 11° |
| 2026-04-15 15:58 | 38.68316 | 116.38730 | 17323 ft | 439 kts | 11° |
| 2026-04-15 15:58 | 38.71297 | 116.39569 | 17058 ft | 438 kts | 11° |
| 2026-04-15 15:59 | 38.74267 | 116.40411 | 16808 ft | 436 kts | 11° |
| 2026-04-15 15:59 | 38.77225 | 116.41253 | 16560 ft | 434 kts | 11° |
| 2026-04-15 15:59 | 38.80168 | 116.42091 | 16314 ft | 432 kts | 11° |
| 2026-04-15 15:59 | 38.83096 | 116.42926 | 16066 ft | 430 kts | 11° |
| 2026-04-15 16:00 | 38.86007 | 116.43757 | 15816 ft | 428 kts | 12° |
| 2026-04-15 16:00 | 38.87933 | 116.44308 | 15660 ft | 427 kts | 12° |
| 2026-04-15 16:00 | 38.91795 | 116.45412 | 15336 ft | 424 kts | 12° |
| 2026-04-15 16:00 | 38.94671 | 116.46235 | 15101 ft | 422 kts | 12° |
| 2026-04-15 16:01 | 38.97530 | 116.47054 | 14865 ft | 420 kts | 12° |
| 2026-04-15 16:01 | 39.00369 | 116.47867 | 14631 ft | 413 kts | 12° |
| 2026-04-15 16:01 | 39.03133 | 116.48660 | 14410 ft | 401 kts | 12° |
| 2026-04-15 16:01 | 39.05819 | 116.49431 | 14192 ft | 390 kts | 12° |
| 2026-04-15 16:02 | 39.08434 | 116.50182 | 13979 ft | 380 kts | 12° |
| 2026-04-15 16:02 | 39.10947 | 116.50838 | 13785 ft | 357 kts | 4° |
| 2026-04-15 16:02 | 39.13356 | 116.50669 | 13459 ft | 339 kts | 351° |
| 2026-04-15 16:02 | 39.15645 | 116.50306 | 13180 ft | 324 kts | 352° |
| 2026-04-15 16:03 | 39.17833 | 116.49971 | 12913 ft | 309 kts | 352° |
| 2026-04-15 16:03 | 39.19923 | 116.49649 | 12663 ft | 296 kts | 351° |
| 2026-04-15 16:03 | 39.21929 | 116.49338 | 12435 ft | 294 kts | 351° |
| 2026-04-15 16:03 | 39.23961 | 116.49023 | 12199 ft | 293 kts | 351° |
| 2026-04-15 16:04 | 39.25986 | 116.48709 | 11968 ft | 293 kts | 351° |
| 2026-04-15 16:04 | 39.28005 | 116.48395 | 11738 ft | 292 kts | 351° |
| 2026-04-15 16:04 | 39.30019 | 116.48081 | 11502 ft | 291 kts | 351° |
| 2026-04-15 16:04 | 39.32020 | 116.47770 | 11266 ft | 290 kts | 351° |
| 2026-04-15 16:05 | 39.34017 | 116.47458 | 11035 ft | 288 kts | 351° |
| 2026-04-15 16:05 | 39.36006 | 116.47148 | 10816 ft | 287 kts | 351° |
| 2026-04-15 16:05 | 39.37988 | 116.46839 | 10598 ft | 286 kts | 351° |
| 2026-04-15 16:05 | 39.39956 | 116.46531 | 10372 ft | 285 kts | 351° |
| 2026-04-15 16:06 | 39.41926 | 116.46224 | 10153 ft | 284 kts | 351° |
| 2026-04-15 16:06 | 39.43888 | 116.45916 | 9916 ft | 284 kts | 351° |
| 2026-04-15 16:06 | 39.45847 | 116.45611 | 9682 ft | 283 kts | 352° |
| 2026-04-15 16:06 | 39.47807 | 116.45768 | 9389 ft | 286 kts | 16° |
| 2026-04-15 16:07 | 39.49563 | 116.46972 | 9168 ft | 287 kts | 35° |
| 2026-04-15 16:07 | 39.51186 | 116.48486 | 8968 ft | 288 kts | 34° |
| 2026-04-15 16:07 | 39.54425 | 116.51531 | 8502 ft | 288 kts | 35° |
| 2026-04-15 16:08 | 39.56038 | 116.53062 | 8286 ft | 287 kts | 35° |
| 2026-04-15 16:08 | 39.57650 | 116.54596 | 8048 ft | 287 kts | 36° |
| 2026-04-15 16:08 | 39.59260 | 116.56132 | 7821 ft | 287 kts | 36° |
| 2026-04-15 16:08 | 39.60850 | 116.57650 | 7600 ft | 287 kts | 36° |
| 2026-04-15 16:09 | 39.62458 | 116.59185 | 7362 ft | 287 kts | 36° |
| 2026-04-15 16:09 | 39.64067 | 116.60724 | 7139 ft | 287 kts | 36° |
| 2026-04-15 16:09 | 39.65676 | 116.62258 | 6913 ft | 287 kts | 34° |
| 2026-04-15 16:09 | 39.67415 | 116.63499 | 6650 ft | 285 kts | 15° |
| 2026-04-15 16:10 | 39.69337 | 116.63765 | 6423 ft | 274 kts | 350° |
| 2026-04-15 16:10 | 39.71185 | 116.63331 | 6240 ft | 266 kts | 345° |
| 2026-04-15 16:10 | 39.72995 | 116.62910 | 6030 ft | 262 kts | 347° |
| 2026-04-15 16:10 | 39.74769 | 116.62575 | 5936 ft | 252 kts | 348° |
| 2026-04-15 16:11 | 39.76475 | 116.62293 | 5939 ft | 245 kts | 349° |
| 2026-04-15 16:11 | 39.78127 | 116.62028 | 5821 ft | 234 kts | 348° |
| 2026-04-15 16:11 | 39.79731 | 116.61774 | 5511 ft | 229 kts | 349° |
| 2026-04-15 16:11 | 39.81275 | 116.61530 | 5200 ft | 216 kts | 348° |
| 2026-04-15 16:12 | 39.82711 | 116.61304 | 4922 ft | 198 kts | 348° |
| 2026-04-15 16:12 | 39.84003 | 116.61103 | 4680 ft | 177 kts | 348° |
| 2026-04-15 16:12 | 39.84795 | 116.60979 | 4509 ft | 171 kts | 347° |
| 2026-04-15 16:12 | 39.85969 | 116.60793 | 4277 ft | 169 kts | 347° |
| 2026-04-15 16:13 | 39.87137 | 116.60608 | 4046 ft | 168 kts | 348° |
| 2026-04-15 16:13 | 39.88298 | 116.60424 | 3821 ft | 168 kts | 348° |
| 2026-04-15 16:13 | 39.89458 | 116.60241 | 3599 ft | 168 kts | 348° |
| 2026-04-15 16:13 | 39.90619 | 116.60058 | 3377 ft | 168 kts | 348° |
| 2026-04-15 16:14 | 39.91780 | 116.59874 | 3162 ft | 168 kts | 348° |
| 2026-04-15 16:14 | 39.92937 | 116.59693 | 2935 ft | 167 kts | 348° |
| 2026-04-15 16:14 | 39.94091 | 116.59511 | 2715 ft | 167 kts | 348° |
| 2026-04-15 16:14 | 39.95241 | 116.59330 | 2496 ft | 166 kts | 349° |
| 2026-04-15 16:15 | 39.96387 | 116.59150 | 2274 ft | 166 kts | 349° |
| 2026-04-15 16:15 | 39.97525 | 116.58970 | 2056 ft | 165 kts | 350° |
| 2026-04-15 16:15 | 39.98659 | 116.58791 | 1836 ft | 164 kts | 350° |
| 2026-04-15 16:15 | 39.99787 | 116.58612 | 1628 ft | 162 kts | 351° |
| 2026-04-15 16:16 | 40.00901 | 116.58437 | 1403 ft | 160 kts | 352° |
| 2026-04-15 16:16 | 40.01995 | 116.58259 | 1174 ft | 158 kts | 352° |
| 2026-04-15 16:16 | 40.03070 | 116.58097 | 950 ft | 153 kts | 354° |
| 2026-04-15 16:16 | 40.04097 | 116.57925 | 744 ft | 148 kts | 355° |
| 2026-04-15 16:17 | 40.05138 | 116.57765 | 579 ft | 149 kts | 354° |
| 2026-04-15 16:17 | 40.06161 | 116.57601 | 390 ft | 147 kts | 354° |
| 2026-04-15 16:17 | 40.07172 | 116.57451 | 198 ft | 145 kts | 354° |
| 2026-04-15 16:17 | 40.08119 | 116.57303 | 124 ft | 112 kts | 353° |
| 2026-04-15 16:18 | 40.08652 | 116.57220 | 124 ft | 51 kts | 352° |
| 2026-04-15 16:18 | 40.08984 | 116.57168 | 126 ft | 37 kts | 353° |
| 2026-04-15 16:18 | 40.09232 | 116.57200 | 125 ft | 36 kts | 19° |
| 2026-04-15 16:18 | 40.09333 | 116.57264 | 126 ft | 10 kts | 62° |
| 2026-04-15 16:19 | 40.09302 | 116.57339 | 124 ft | 11 kts | 155° |
| 2026-04-15 16:19 | 40.09219 | 116.57355 | 123 ft | 14 kts | 174° |
| 2026-04-15 16:19 | 40.09111 | 116.57370 | 125 ft | 18 kts | 172° |
| 2026-04-15 16:19 | 40.08970 | 116.57394 | 124 ft | 23 kts | 173° |
| 2026-04-15 16:20 | 40.08801 | 116.57421 | 124 ft | 26 kts | 173° |
| 2026-04-15 16:20 | 40.08616 | 116.57449 | 123 ft | 28 kts | 173° |
| 2026-04-15 16:20 | 40.08418 | 116.57480 | 125 ft | 29 kts | 173° |
| 2026-04-15 16:20 | 40.08225 | 116.57511 | 126 ft | 28 kts | 173° |
| 2026-04-15 16:21 | 40.08034 | 116.57540 | 126 ft | 28 kts | 173° |
| 2026-04-15 16:21 | 40.07835 | 116.57572 | 124 ft | 30 kts | 173° |
| 2026-04-15 16:21 | 40.07625 | 116.57605 | 125 ft | 28 kts | 173° |
| 2026-04-15 16:21 | 40.07434 | 116.57634 | 125 ft | 20 kts | 173° |
| 2026-04-15 16:22 | 40.07332 | 116.57725 | 126 ft | 20 kts | 93° |
| 2026-04-15 16:22 | 40.07347 | 116.57915 | 122 ft | 22 kts | 83° |
| 2026-04-15 16:22 | 40.07366 | 116.58121 | 124 ft | 24 kts | 83° |
| 2026-04-15 16:22 | 40.07386 | 116.58347 | 125 ft | 26 kts | 83° |
| 2026-04-15 16:23 | 40.07409 | 116.58592 | 126 ft | 28 kts | 86° |
| 2026-04-15 16:23 | 40.07424 | 116.58851 | 126 ft | 29 kts | 83° |
| 2026-04-15 16:23 | 40.07447 | 116.59106 | 124 ft | 29 kts | 83° |
| 2026-04-15 16:23 | 40.07442 | 116.59295 | 124 ft | 12 kts | 140° |
| 2026-04-15 16:24 | 40.07358 | 116.59360 | 125 ft | 18 kts | 149° |
| 2026-04-15 16:24 | 40.07220 | 116.59412 | 126 ft | 23 kts | 174° |
| 2026-04-15 16:24 | 40.07051 | 116.59440 | 124 ft | 25 kts | 174° |
| 2026-04-15 16:24 | 40.06871 | 116.59467 | 123 ft | 27 kts | 173° |
| 2026-04-15 16:25 | 40.06677 | 116.59498 | 124 ft | 29 kts | 173° |
| 2026-04-15 16:25 | 40.06500 | 116.59525 | 123 ft | 26 kts | 174° |
| 2026-04-15 16:25 | 40.06334 | 116.59551 | 123 ft | 16 kts | 172° |
| 2026-04-15 16:25 | 40.06216 | 116.59570 | 124 ft | 18 kts | 173° |
| 2026-04-15 16:26 | 40.06125 | 116.59653 | 124 ft | 19 kts | 87° |
| 2026-04-15 16:26 | 40.06141 | 116.59827 | 126 ft | 21 kts | 83° |
| 2026-04-15 16:26 | 40.06159 | 116.60021 | 126 ft | 19 kts | 83° |
| 2026-04-15 16:26 | 40.06176 | 116.60200 | 126 ft | 21 kts | 83° |
| 2026-04-15 16:27 | 40.06193 | 116.60394 | 122 ft | 23 kts | 83° |
| 2026-04-15 16:27 | 40.06178 | 116.60534 | 124 ft | 6 kts | 158° |
| 2026-04-15 16:27 | 40.06100 | 116.60547 | 125 ft | 17 kts | 175° |
| 2026-04-15 16:27 | 40.05973 | 116.60564 | 124 ft | 20 kts | 173° |
| 2026-04-15 16:28 | 40.05869 | 116.60592 | 126 ft | 10 kts | 132° |
| 2026-04-15 16:28 | 40.05862 | 116.60669 | 121 ft | 6 kts | 84° |
| 2026-04-15 16:28 | 40.05864 | 116.60691 | 123 ft | 0 kts | 83° |